sensor_id;sensor_type;location;lat;lon;timestamp;temperature;humidity
11615;DHT22;5863;52.832;4.758;2022-12-16T00:01:05;2.80;99.90
11615;DHT22;5863;52.832;4.758;2022-12-16T00:03:32;2.90;99.90
11615;DHT22;5863;52.832;4.758;2022-12-16T00:06:01;3.00;99.90
11615;DHT22;5863;52.832;4.758;2022-12-16T00:08:30;3.00;99.90
11615;DHT22;5863;52.832;4.758;2022-12-16T00:10:58;2.90;99.90
11615;DHT22;5863;52.832;4.758;2022-12-16T00:13:28;3.00;99.90
11615;DHT22;5863;52.832;4.758;2022-12-16T00:15:54;2.90;99.90
11615;DHT22;5863;52.832;4.758;2022-12-16T00:18:21;2.90;99.90
11615;DHT22;5863;52.832;4.758;2022-12-16T00:20:51;2.80;99.90
11615;DHT22;5863;52.832;4.758;2022-12-16T00:23:20;2.80;99.90
11615;DHT22;5863;52.832;4.758;2022-12-16T00:25:47;2.80;99.90
11615;DHT22;5863;52.832;4.758;2022-12-16T00:28:14;2.80;99.90
11615;DHT22;5863;52.832;4.758;2022-12-16T00:30:42;2.80;99.90
11615;DHT22;5863;52.832;4.758;2022-12-16T00:33:09;2.80;99.90
11615;DHT22;5863;52.832;4.758;2022-12-16T00:35:37;2.90;99.90
11615;DHT22;5863;52.832;4.758;2022-12-16T00:38:04;2.70;99.90
11615;DHT22;5863;52.832;4.758;2022-12-16T00:40:32;2.70;99.90
11615;DHT22;5863;52.832;4.758;2022-12-16T00:42:59;2.70;99.90
11615;DHT22;5863;52.832;4.758;2022-12-16T00:45:26;2.80;99.90
11615;DHT22;5863;52.832;4.758;2022-12-16T00:47:53;2.70;99.90
11615;DHT22;5863;52.832;4.758;2022-12-16T00:50:19;2.70;99.90
11615;DHT22;5863;52.832;4.758;2022-12-16T00:52:47;2.70;99.90
11615;DHT22;5863;52.832;4.758;2022-12-16T00:55:14;2.70;99.90
11615;DHT22;5863;52.832;4.758;2022-12-16T00:57:42;2.70;99.90
11615;DHT22;5863;52.832;4.758;2022-12-16T01:00:11;2.70;99.90
11615;DHT22;5863;52.832;4.758;2022-12-16T01:02:39;2.70;99.90
11615;DHT22;5863;52.832;4.758;2022-12-16T01:05:07;2.70;99.90
11615;DHT22;5863;52.832;4.758;2022-12-16T01:07:34;2.60;99.90
11615;DHT22;5863;52.832;4.758;2022-12-16T01:10:02;2.60;99.90
11615;DHT22;5863;52.832;4.758;2022-12-16T01:12:29;2.60;99.90
11615;DHT22;5863;52.832;4.758;2022-12-16T01:15:06;2.60;99.90
11615;DHT22;5863;52.832;4.758;2022-12-16T01:17:33;2.60;99.90
11615;DHT22;5863;52.832;4.758;2022-12-16T01:20:02;2.60;99.90
11615;DHT22;5863;52.832;4.758;2022-12-16T01:22:30;2.50;99.90
11615;DHT22;5863;52.832;4.758;2022-12-16T01:25:00;2.60;99.90
11615;DHT22;5863;52.832;4.758;2022-12-16T01:27:28;2.60;99.90
11615;DHT22;5863;52.832;4.758;2022-12-16T01:29:55;2.60;99.90
11615;DHT22;5863;52.832;4.758;2022-12-16T01:32:29;2.50;99.90
11615;DHT22;5863;52.832;4.758;2022-12-16T01:34:56;2.50;99.90
11615;DHT22;5863;52.832;4.758;2022-12-16T01:37:23;2.50;99.90
11615;DHT22;5863;52.832;4.758;2022-12-16T01:39:50;2.50;99.90
11615;DHT22;5863;52.832;4.758;2022-12-16T01:42:19;2.50;99.90
11615;DHT22;5863;52.832;4.758;2022-12-16T01:44:48;2.40;99.90
11615;DHT22;5863;52.832;4.758;2022-12-16T01:47:17;2.40;99.90
11615;DHT22;5863;52.832;4.758;2022-12-16T01:49:50;2.40;99.90
11615;DHT22;5863;52.832;4.758;2022-12-16T01:52:22;2.40;99.90
11615;DHT22;5863;52.832;4.758;2022-12-16T01:54:54;2.40;99.90
11615;DHT22;5863;52.832;4.758;2022-12-16T01:57:26;2.40;99.90
11615;DHT22;5863;52.832;4.758;2022-12-16T01:59:56;2.50;99.90
11615;DHT22;5863;52.832;4.758;2022-12-16T02:02:23;2.50;99.90
11615;DHT22;5863;52.832;4.758;2022-12-16T02:04:53;2.40;99.90
11615;DHT22;5863;52.832;4.758;2022-12-16T02:07:38;2.50;99.90
11615;DHT22;5863;52.832;4.758;2022-12-16T02:10:05;2.40;99.90
11615;DHT22;5863;52.832;4.758;2022-12-16T02:12:41;2.40;99.90
11615;DHT22;5863;52.832;4.758;2022-12-16T02:15:21;2.40;99.90
11615;DHT22;5863;52.832;4.758;2022-12-16T02:17:57;2.40;99.90
11615;DHT22;5863;52.832;4.758;2022-12-16T02:20:52;2.40;99.90
11615;DHT22;5863;52.832;4.758;2022-12-16T02:29:43;2.30;99.90
11615;DHT22;5863;52.832;4.758;2022-12-16T02:32:22;2.10;99.90
11615;DHT22;5863;52.832;4.758;2022-12-16T02:34:56;2.20;99.90
11615;DHT22;5863;52.832;4.758;2022-12-16T02:37:32;2.20;99.90
11615;DHT22;5863;52.832;4.758;2022-12-16T02:40:07;2.20;99.90
11615;DHT22;5863;52.832;4.758;2022-12-16T02:42:40;2.10;99.90
11615;DHT22;5863;52.832;4.758;2022-12-16T02:45:15;2.20;99.90
11615;DHT22;5863;52.832;4.758;2022-12-16T02:47:45;2.10;99.90
11615;DHT22;5863;52.832;4.758;2022-12-16T02:50:17;2.10;99.90
11615;DHT22;5863;52.832;4.758;2022-12-16T02:52:45;2.10;99.90
11615;DHT22;5863;52.832;4.758;2022-12-16T02:55:12;2.10;99.90
11615;DHT22;5863;52.832;4.758;2022-12-16T02:58:03;2.10;99.90
11615;DHT22;5863;52.832;4.758;2022-12-16T03:00:40;2.10;99.90
11615;DHT22;5863;52.832;4.758;2022-12-16T03:03:17;2.10;99.90
11615;DHT22;5863;52.832;4.758;2022-12-16T03:05:47;2.10;99.90
11615;DHT22;5863;52.832;4.758;2022-12-16T03:08:19;2.10;99.90
11615;DHT22;5863;52.832;4.758;2022-12-16T03:10:53;2.10;99.90
11615;DHT22;5863;52.832;4.758;2022-12-16T03:13:22;2.10;99.90
11615;DHT22;5863;52.832;4.758;2022-12-16T03:15:52;2.10;99.90
11615;DHT22;5863;52.832;4.758;2022-12-16T03:18:21;2.10;99.90
11615;DHT22;5863;52.832;4.758;2022-12-16T03:20:52;1.90;99.90
11615;DHT22;5863;52.832;4.758;2022-12-16T03:23:24;2.00;99.90
11615;DHT22;5863;52.832;4.758;2022-12-16T03:25:56;2.00;99.90
11615;DHT22;5863;52.832;4.758;2022-12-16T03:28:33;1.90;99.90
11615;DHT22;5863;52.832;4.758;2022-12-16T03:31:05;1.90;99.90
11615;DHT22;5863;52.832;4.758;2022-12-16T03:33:46;1.90;99.90
11615;DHT22;5863;52.832;4.758;2022-12-16T03:36:16;1.90;99.90
11615;DHT22;5863;52.832;4.758;2022-12-16T03:38:45;1.90;99.90
11615;DHT22;5863;52.832;4.758;2022-12-16T03:41:14;2.00;99.90
11615;DHT22;5863;52.832;4.758;2022-12-16T03:43:42;2.00;99.90
11615;DHT22;5863;52.832;4.758;2022-12-16T03:46:09;2.00;99.90
11615;DHT22;5863;52.832;4.758;2022-12-16T03:48:46;2.00;99.90
11615;DHT22;5863;52.832;4.758;2022-12-16T03:51:12;2.00;99.90
11615;DHT22;5863;52.832;4.758;2022-12-16T03:53:40;2.00;99.90
11615;DHT22;5863;52.832;4.758;2022-12-16T03:56:07;2.10;99.90
11615;DHT22;5863;52.832;4.758;2022-12-16T03:58:34;2.00;99.90
11615;DHT22;5863;52.832;4.758;2022-12-16T04:01:02;2.00;99.90
11615;DHT22;5863;52.832;4.758;2022-12-16T04:03:29;2.10;99.90
11615;DHT22;5863;52.832;4.758;2022-12-16T04:06:02;2.10;99.90
11615;DHT22;5863;52.832;4.758;2022-12-16T04:08:29;2.10;99.90
11615;DHT22;5863;52.832;4.758;2022-12-16T04:10:55;2.00;99.90
11615;DHT22;5863;52.832;4.758;2022-12-16T04:13:39;2.00;99.90
11615;DHT22;5863;52.832;4.758;2022-12-16T04:16:25;2.00;99.90
11615;DHT22;5863;52.832;4.758;2022-12-16T04:19:17;2.00;99.90
11615;DHT22;5863;52.832;4.758;2022-12-16T04:22:03;2.10;99.90
11615;DHT22;5863;52.832;4.758;2022-12-16T04:24:47;2.10;99.90
11615;DHT22;5863;52.832;4.758;2022-12-16T04:27:13;2.10;99.90
11615;DHT22;5863;52.832;4.758;2022-12-16T04:29:53;2.00;99.90
11615;DHT22;5863;52.832;4.758;2022-12-16T04:32:42;2.10;99.90
11615;DHT22;5863;52.832;4.758;2022-12-16T04:35:26;2.00;99.90
11615;DHT22;5863;52.832;4.758;2022-12-16T04:38:13;2.00;99.90
11615;DHT22;5863;52.832;4.758;2022-12-16T04:40:57;2.10;99.90
11615;DHT22;5863;52.832;4.758;2022-12-16T04:43:41;2.10;99.90
11615;DHT22;5863;52.832;4.758;2022-12-16T04:46:40;2.00;99.90
11615;DHT22;5863;52.832;4.758;2022-12-16T04:49:24;2.10;99.90
11615;DHT22;5863;52.832;4.758;2022-12-16T04:52:14;2.10;99.90
11615;DHT22;5863;52.832;4.758;2022-12-16T04:55:03;2.10;99.90
11615;DHT22;5863;52.832;4.758;2022-12-16T04:57:50;2.10;99.90
11615;DHT22;5863;52.832;4.758;2022-12-16T05:00:34;2.00;99.90
11615;DHT22;5863;52.832;4.758;2022-12-16T05:03:18;2.00;99.90
11615;DHT22;5863;52.832;4.758;2022-12-16T05:06:02;2.00;99.90
11615;DHT22;5863;52.832;4.758;2022-12-16T05:08:47;2.00;99.90
11615;DHT22;5863;52.832;4.758;2022-12-16T05:11:29;2.10;99.90
11615;DHT22;5863;52.832;4.758;2022-12-16T05:14:17;2.10;99.90
11615;DHT22;5863;52.832;4.758;2022-12-16T05:17:01;2.10;99.90
11615;DHT22;5863;52.832;4.758;2022-12-16T05:19:45;2.10;99.90
11615;DHT22;5863;52.832;4.758;2022-12-16T05:22:35;2.10;99.90
11615;DHT22;5863;52.832;4.758;2022-12-16T05:25:20;2.20;99.90
11615;DHT22;5863;52.832;4.758;2022-12-16T05:28:11;2.10;99.90
11615;DHT22;5863;52.832;4.758;2022-12-16T05:30:55;2.10;99.90
11615;DHT22;5863;52.832;4.758;2022-12-16T05:33:39;2.10;99.90
11615;DHT22;5863;52.832;4.758;2022-12-16T05:36:23;2.10;99.90
11615;DHT22;5863;52.832;4.758;2022-12-16T05:39:07;2.10;99.90
11615;DHT22;5863;52.832;4.758;2022-12-16T05:42:02;2.10;99.90
11615;DHT22;5863;52.832;4.758;2022-12-16T05:44:49;2.20;99.90
11615;DHT22;5863;52.832;4.758;2022-12-16T05:47:33;2.20;99.90
11615;DHT22;5863;52.832;4.758;2022-12-16T05:50:17;2.20;99.90
11615;DHT22;5863;52.832;4.758;2022-12-16T05:53:04;2.20;99.90
11615;DHT22;5863;52.832;4.758;2022-12-16T05:55:48;2.20;99.90
11615;DHT22;5863;52.832;4.758;2022-12-16T05:58:35;2.10;99.90
11615;DHT22;5863;52.832;4.758;2022-12-16T06:01:20;2.20;99.90
11615;DHT22;5863;52.832;4.758;2022-12-16T06:04:05;2.20;99.90
11615;DHT22;5863;52.832;4.758;2022-12-16T06:06:49;2.30;99.90
11615;DHT22;5863;52.832;4.758;2022-12-16T06:09:39;2.30;99.90
11615;DHT22;5863;52.832;4.758;2022-12-16T06:12:23;2.30;99.90
11615;DHT22;5863;52.832;4.758;2022-12-16T06:15:08;2.30;99.90
11615;DHT22;5863;52.832;4.758;2022-12-16T06:17:53;2.30;99.90
11615;DHT22;5863;52.832;4.758;2022-12-16T06:20:37;2.20;99.90
11615;DHT22;5863;52.832;4.758;2022-12-16T06:23:23;2.30;99.90
11615;DHT22;5863;52.832;4.758;2022-12-16T06:26:07;2.40;99.90
11615;DHT22;5863;52.832;4.758;2022-12-16T06:28:51;2.30;99.90
11615;DHT22;5863;52.832;4.758;2022-12-16T06:31:44;2.30;99.90
11615;DHT22;5863;52.832;4.758;2022-12-16T06:34:29;2.40;99.90
11615;DHT22;5863;52.832;4.758;2022-12-16T06:37:13;2.40;99.90
11615;DHT22;5863;52.832;4.758;2022-12-16T06:40:05;2.40;99.90
11615;DHT22;5863;52.832;4.758;2022-12-16T06:42:49;2.30;99.90
11615;DHT22;5863;52.832;4.758;2022-12-16T06:45:34;2.30;99.90
11615;DHT22;5863;52.832;4.758;2022-12-16T06:48:18;2.30;99.90
11615;DHT22;5863;52.832;4.758;2022-12-16T06:51:04;2.30;99.90
11615;DHT22;5863;52.832;4.758;2022-12-16T06:53:48;2.40;99.90
11615;DHT22;5863;52.832;4.758;2022-12-16T06:56:32;2.40;99.90
11615;DHT22;5863;52.832;4.758;2022-12-16T06:59:16;2.40;99.90
11615;DHT22;5863;52.832;4.758;2022-12-16T07:02:01;2.30;99.90
11615;DHT22;5863;52.832;4.758;2022-12-16T07:04:45;2.30;99.90
11615;DHT22;5863;52.832;4.758;2022-12-16T07:07:30;2.30;99.90
11615;DHT22;5863;52.832;4.758;2022-12-16T07:10:15;2.30;99.90
11615;DHT22;5863;52.832;4.758;2022-12-16T07:12:59;2.40;99.90
11615;DHT22;5863;52.832;4.758;2022-12-16T07:15:44;2.40;99.90
11615;DHT22;5863;52.832;4.758;2022-12-16T07:18:28;2.50;99.90
11615;DHT22;5863;52.832;4.758;2022-12-16T07:21:13;2.60;99.90
11615;DHT22;5863;52.832;4.758;2022-12-16T07:23:58;2.50;99.90
11615;DHT22;5863;52.832;4.758;2022-12-16T07:26:42;2.60;99.90
11615;DHT22;5863;52.832;4.758;2022-12-16T07:29:27;2.60;99.90
11615;DHT22;5863;52.832;4.758;2022-12-16T07:32:11;2.60;99.90
11615;DHT22;5863;52.832;4.758;2022-12-16T07:34:55;2.60;99.90
11615;DHT22;5863;52.832;4.758;2022-12-16T07:37:39;2.70;99.90
11615;DHT22;5863;52.832;4.758;2022-12-16T07:40:27;2.70;99.90
11615;DHT22;5863;52.832;4.758;2022-12-16T07:43:12;2.70;99.90
11615;DHT22;5863;52.832;4.758;2022-12-16T07:45:56;2.70;99.90
11615;DHT22;5863;52.832;4.758;2022-12-16T07:48:40;2.60;99.90
11615;DHT22;5863;52.832;4.758;2022-12-16T07:51:30;2.60;99.90
11615;DHT22;5863;52.832;4.758;2022-12-16T07:54:14;2.60;99.90
11615;DHT22;5863;52.832;4.758;2022-12-16T07:57:00;2.60;99.90
11615;DHT22;5863;52.832;4.758;2022-12-16T07:59:44;2.60;99.90
11615;DHT22;5863;52.832;4.758;2022-12-16T08:02:28;2.60;99.90
11615;DHT22;5863;52.832;4.758;2022-12-16T08:05:12;2.50;99.90
11615;DHT22;5863;52.832;4.758;2022-12-16T08:07:56;2.50;99.90
11615;DHT22;5863;52.832;4.758;2022-12-16T08:10:48;2.50;99.90
11615;DHT22;5863;52.832;4.758;2022-12-16T08:13:34;2.50;99.90
11615;DHT22;5863;52.832;4.758;2022-12-16T08:16:18;2.50;99.90
11615;DHT22;5863;52.832;4.758;2022-12-16T08:19:02;2.60;99.90
11615;DHT22;5863;52.832;4.758;2022-12-16T08:21:46;2.50;99.90
11615;DHT22;5863;52.832;4.758;2022-12-16T08:24:36;2.50;99.90
11615;DHT22;5863;52.832;4.758;2022-12-16T08:27:20;2.50;99.90
11615;DHT22;5863;52.832;4.758;2022-12-16T08:30:07;2.40;99.90
11615;DHT22;5863;52.832;4.758;2022-12-16T08:32:51;2.50;99.90
11615;DHT22;5863;52.832;4.758;2022-12-16T08:35:35;2.50;99.90
11615;DHT22;5863;52.832;4.758;2022-12-16T08:38:19;2.50;99.90
11615;DHT22;5863;52.832;4.758;2022-12-16T08:41:04;2.40;99.90
11615;DHT22;5863;52.832;4.758;2022-12-16T08:43:53;2.50;99.90
11615;DHT22;5863;52.832;4.758;2022-12-16T08:46:39;2.50;99.90
11615;DHT22;5863;52.832;4.758;2022-12-16T08:49:25;2.50;99.90
11615;DHT22;5863;52.832;4.758;2022-12-16T08:52:09;2.50;99.90
11615;DHT22;5863;52.832;4.758;2022-12-16T08:54:53;2.60;99.90
11615;DHT22;5863;52.832;4.758;2022-12-16T08:57:38;2.70;99.90
11615;DHT22;5863;52.832;4.758;2022-12-16T09:00:34;2.70;99.90
11615;DHT22;5863;52.832;4.758;2022-12-16T09:03:19;2.90;99.90
11615;DHT22;5863;52.832;4.758;2022-12-16T09:06:04;2.80;99.90
11615;DHT22;5863;52.832;4.758;2022-12-16T09:08:59;2.80;99.90
11615;DHT22;5863;52.832;4.758;2022-12-16T09:11:44;2.90;99.90
11615;DHT22;5863;52.832;4.758;2022-12-16T09:14:28;2.90;99.90
11615;DHT22;5863;52.832;4.758;2022-12-16T09:17:12;3.00;99.90
11615;DHT22;5863;52.832;4.758;2022-12-16T09:19:57;3.10;99.90
11615;DHT22;5863;52.832;4.758;2022-12-16T09:22:42;3.20;99.90
11615;DHT22;5863;52.832;4.758;2022-12-16T09:25:26;3.10;99.90
11615;DHT22;5863;52.832;4.758;2022-12-16T09:28:10;3.10;99.90
11615;DHT22;5863;52.832;4.758;2022-12-16T09:30:54;3.10;99.90
11615;DHT22;5863;52.832;4.758;2022-12-16T09:33:38;3.20;99.90
11615;DHT22;5863;52.832;4.758;2022-12-16T09:36:24;3.10;99.90
11615;DHT22;5863;52.832;4.758;2022-12-16T09:39:08;3.20;99.90
11615;DHT22;5863;52.832;4.758;2022-12-16T09:41:59;3.30;99.90
11615;DHT22;5863;52.832;4.758;2022-12-16T09:44:53;3.30;99.90
11615;DHT22;5863;52.832;4.758;2022-12-16T09:47:45;3.30;99.90
11615;DHT22;5863;52.832;4.758;2022-12-16T09:50:31;3.40;99.90
11615;DHT22;5863;52.832;4.758;2022-12-16T09:53:19;3.50;99.90
11615;DHT22;5863;52.832;4.758;2022-12-16T09:56:09;3.40;99.90
11615;DHT22;5863;52.832;4.758;2022-12-16T09:58:59;3.60;99.90
11615;DHT22;5863;52.832;4.758;2022-12-16T10:01:44;3.60;99.90
11615;DHT22;5863;52.832;4.758;2022-12-16T10:04:32;3.60;99.90
11615;DHT22;5863;52.832;4.758;2022-12-16T10:07:17;3.60;99.90
11615;DHT22;5863;52.832;4.758;2022-12-16T10:10:15;3.70;99.90
11615;DHT22;5863;52.832;4.758;2022-12-16T10:13:06;3.80;99.90
11615;DHT22;5863;52.832;4.758;2022-12-16T10:15:58;3.80;99.90
11615;DHT22;5863;52.832;4.758;2022-12-16T10:18:51;3.80;99.90
11615;DHT22;5863;52.832;4.758;2022-12-16T10:21:44;3.90;99.90
11615;DHT22;5863;52.832;4.758;2022-12-16T10:24:38;4.00;99.90
11615;DHT22;5863;52.832;4.758;2022-12-16T10:27:32;4.10;99.90
11615;DHT22;5863;52.832;4.758;2022-12-16T10:30:20;4.10;99.90
11615;DHT22;5863;52.832;4.758;2022-12-16T10:33:08;4.20;99.90
11615;DHT22;5863;52.832;4.758;2022-12-16T10:35:55;4.30;99.90
11615;DHT22;5863;52.832;4.758;2022-12-16T10:38:42;4.30;99.90
11615;DHT22;5863;52.832;4.758;2022-12-16T10:41:31;4.30;99.90
11615;DHT22;5863;52.832;4.758;2022-12-16T10:44:22;4.40;99.90
11615;DHT22;5863;52.832;4.758;2022-12-16T10:47:08;4.50;99.90
11615;DHT22;5863;52.832;4.758;2022-12-16T10:49:54;4.60;99.90
11615;DHT22;5863;52.832;4.758;2022-12-16T10:52:59;4.70;99.90
11615;DHT22;5863;52.832;4.758;2022-12-16T10:55:50;4.70;99.90
11615;DHT22;5863;52.832;4.758;2022-12-16T10:58:45;4.70;99.90
11615;DHT22;5863;52.832;4.758;2022-12-16T11:01:31;4.70;99.90
11615;DHT22;5863;52.832;4.758;2022-12-16T11:04:31;4.60;99.90
11615;DHT22;5863;52.832;4.758;2022-12-16T11:07:28;4.60;99.90
11615;DHT22;5863;52.832;4.758;2022-12-16T11:10:29;4.60;99.90
11615;DHT22;5863;52.832;4.758;2022-12-16T11:13:17;4.80;99.90
11615;DHT22;5863;52.832;4.758;2022-12-16T11:16:06;4.80;99.90
11615;DHT22;5863;52.832;4.758;2022-12-16T11:18:53;4.90;99.90
11615;DHT22;5863;52.832;4.758;2022-12-16T11:21:37;5.00;99.90
11615;DHT22;5863;52.832;4.758;2022-12-16T11:24:23;5.00;99.90
11615;DHT22;5863;52.832;4.758;2022-12-16T11:27:13;5.00;99.90
11615;DHT22;5863;52.832;4.758;2022-12-16T11:29:59;5.00;99.90
11615;DHT22;5863;52.832;4.758;2022-12-16T11:32:46;5.10;99.90
11615;DHT22;5863;52.832;4.758;2022-12-16T11:35:34;5.10;99.90
11615;DHT22;5863;52.832;4.758;2022-12-16T11:38:25;5.10;99.90
11615;DHT22;5863;52.832;4.758;2022-12-16T11:41:23;5.30;99.90
11615;DHT22;5863;52.832;4.758;2022-12-16T11:44:17;5.30;99.90
11615;DHT22;5863;52.832;4.758;2022-12-16T11:47:09;5.40;99.90
11615;DHT22;5863;52.832;4.758;2022-12-16T11:49:56;5.40;99.90
11615;DHT22;5863;52.832;4.758;2022-12-16T11:52:45;5.30;99.90
11615;DHT22;5863;52.832;4.758;2022-12-16T11:55:31;5.40;99.90
11615;DHT22;5863;52.832;4.758;2022-12-16T11:58:20;5.40;99.90
11615;DHT22;5863;52.832;4.758;2022-12-16T12:01:12;5.40;99.90
11615;DHT22;5863;52.832;4.758;2022-12-16T12:03:59;5.40;99.90
11615;DHT22;5863;52.832;4.758;2022-12-16T12:07:14;5.40;99.90
11615;DHT22;5863;52.832;4.758;2022-12-16T12:10:09;5.40;99.90
11615;DHT22;5863;52.832;4.758;2022-12-16T12:12:59;5.40;99.90
11615;DHT22;5863;52.832;4.758;2022-12-16T12:15:54;5.40;99.90
11615;DHT22;5863;52.832;4.758;2022-12-16T12:18:46;5.50;99.90
11615;DHT22;5863;52.832;4.758;2022-12-16T12:21:37;5.50;99.90
11615;DHT22;5863;52.832;4.758;2022-12-16T12:24:32;5.40;99.90
11615;DHT22;5863;52.832;4.758;2022-12-16T12:27:26;5.50;99.90
11615;DHT22;5863;52.832;4.758;2022-12-16T12:30:15;5.40;99.90
11615;DHT22;5863;52.832;4.758;2022-12-16T12:33:15;5.50;99.90
11615;DHT22;5863;52.832;4.758;2022-12-16T12:36:09;5.60;99.90
11615;DHT22;5863;52.832;4.758;2022-12-16T12:39:02;5.60;99.90
11615;DHT22;5863;52.832;4.758;2022-12-16T12:42:11;5.70;99.90
11615;DHT22;5863;52.832;4.758;2022-12-16T12:48:20;5.70;99.90
11615;DHT22;5863;52.832;4.758;2022-12-16T12:51:11;5.60;99.90
11615;DHT22;5863;52.832;4.758;2022-12-16T12:54:04;5.60;99.90
11615;DHT22;5863;52.832;4.758;2022-12-16T12:56:52;5.70;99.90
11615;DHT22;5863;52.832;4.758;2022-12-16T12:59:45;5.90;99.90
11615;DHT22;5863;52.832;4.758;2022-12-16T13:02:42;5.80;99.90
11615;DHT22;5863;52.832;4.758;2022-12-16T13:05:32;5.80;99.90
11615;DHT22;5863;52.832;4.758;2022-12-16T13:08:30;5.80;99.90
11615;DHT22;5863;52.832;4.758;2022-12-16T13:11:15;5.80;99.90
11615;DHT22;5863;52.832;4.758;2022-12-16T13:14:00;6.00;99.90
11615;DHT22;5863;52.832;4.758;2022-12-16T13:17:05;5.90;99.90
11615;DHT22;5863;52.832;4.758;2022-12-16T13:19:55;5.80;99.90
11615;DHT22;5863;52.832;4.758;2022-12-16T13:22:40;5.80;99.90
11615;DHT22;5863;52.832;4.758;2022-12-16T13:25:38;5.80;99.90
11615;DHT22;5863;52.832;4.758;2022-12-16T13:28:25;5.80;99.90
11615;DHT22;5863;52.832;4.758;2022-12-16T13:31:11;5.80;99.90
11615;DHT22;5863;52.832;4.758;2022-12-16T13:34:02;5.70;99.90
11615;DHT22;5863;52.832;4.758;2022-12-16T13:36:54;5.80;99.90
11615;DHT22;5863;52.832;4.758;2022-12-16T13:39:40;5.80;99.90
11615;DHT22;5863;52.832;4.758;2022-12-16T13:42:50;5.80;99.90
11615;DHT22;5863;52.832;4.758;2022-12-16T13:45:34;5.70;99.90
11615;DHT22;5863;52.832;4.758;2022-12-16T13:48:38;5.70;99.90
11615;DHT22;5863;52.832;4.758;2022-12-16T13:51:55;5.50;99.90
11615;DHT22;5863;52.832;4.758;2022-12-16T13:54:45;5.40;99.90
11615;DHT22;5863;52.832;4.758;2022-12-16T13:57:36;5.30;99.90
11615;DHT22;5863;52.832;4.758;2022-12-16T14:00:20;5.30;99.90
11615;DHT22;5863;52.832;4.758;2022-12-16T14:03:10;5.20;99.90
11615;DHT22;5863;52.832;4.758;2022-12-16T14:05:56;5.10;99.90
11615;DHT22;5863;52.832;4.758;2022-12-16T14:08:51;5.10;99.90
11615;DHT22;5863;52.832;4.758;2022-12-16T14:11:42;5.00;99.90
11615;DHT22;5863;52.832;4.758;2022-12-16T14:14:32;4.90;99.90
11615;DHT22;5863;52.832;4.758;2022-12-16T14:17:24;4.90;99.90
11615;DHT22;5863;52.832;4.758;2022-12-16T14:20:15;4.80;99.90
11615;DHT22;5863;52.832;4.758;2022-12-16T14:23:22;4.80;99.90
11615;DHT22;5863;52.832;4.758;2022-12-16T14:26:17;4.80;99.90
11615;DHT22;5863;52.832;4.758;2022-12-16T14:29:14;4.70;99.90
11615;DHT22;5863;52.832;4.758;2022-12-16T14:31:59;4.70;99.90
11615;DHT22;5863;52.832;4.758;2022-12-16T14:34:43;4.60;99.90
11615;DHT22;5863;52.832;4.758;2022-12-16T14:37:33;4.60;99.90
11615;DHT22;5863;52.832;4.758;2022-12-16T14:40:19;4.60;99.90
11615;DHT22;5863;52.832;4.758;2022-12-16T14:43:10;4.50;99.90
11615;DHT22;5863;52.832;4.758;2022-12-16T14:45:55;4.50;99.90
11615;DHT22;5863;52.832;4.758;2022-12-16T14:48:39;4.40;99.90
11615;DHT22;5863;52.832;4.758;2022-12-16T14:51:29;4.40;99.90
11615;DHT22;5863;52.832;4.758;2022-12-16T14:54:25;4.30;99.90
11615;DHT22;5863;52.832;4.758;2022-12-16T14:57:13;4.30;99.90
11615;DHT22;5863;52.832;4.758;2022-12-16T15:00:03;4.20;99.90
11615;DHT22;5863;52.832;4.758;2022-12-16T15:02:49;4.20;99.90
11615;DHT22;5863;52.832;4.758;2022-12-16T15:05:37;4.10;99.90
11615;DHT22;5863;52.832;4.758;2022-12-16T15:08:22;4.10;99.90
11615;DHT22;5863;52.832;4.758;2022-12-16T15:11:10;4.10;99.90
11615;DHT22;5863;52.832;4.758;2022-12-16T15:14:00;4.00;99.90
11615;DHT22;5863;52.832;4.758;2022-12-16T15:16:47;4.00;99.90
11615;DHT22;5863;52.832;4.758;2022-12-16T15:19:41;3.90;99.90
11615;DHT22;5863;52.832;4.758;2022-12-16T15:22:26;3.90;99.90
11615;DHT22;5863;52.832;4.758;2022-12-16T15:25:18;3.80;99.90
11615;DHT22;5863;52.832;4.758;2022-12-16T15:28:03;3.80;99.90
11615;DHT22;5863;52.832;4.758;2022-12-16T15:30:47;3.80;99.90
11615;DHT22;5863;52.832;4.758;2022-12-16T15:33:36;3.70;99.90
11615;DHT22;5863;52.832;4.758;2022-12-16T15:36:26;3.70;99.90
11615;DHT22;5863;52.832;4.758;2022-12-16T15:39:18;3.60;99.90
11615;DHT22;5863;52.832;4.758;2022-12-16T15:42:18;3.50;99.90
11615;DHT22;5863;52.832;4.758;2022-12-16T15:45:03;3.40;99.90
11615;DHT22;5863;52.832;4.758;2022-12-16T15:47:49;3.30;99.90
11615;DHT22;5863;52.832;4.758;2022-12-16T15:50:35;3.30;99.90
11615;DHT22;5863;52.832;4.758;2022-12-16T15:53:36;3.20;99.90
11615;DHT22;5863;52.832;4.758;2022-12-16T15:56:22;3.10;99.90
11615;DHT22;5863;52.832;4.758;2022-12-16T15:59:14;3.10;99.90
11615;DHT22;5863;52.832;4.758;2022-12-16T16:02:05;3.10;99.90
11615;DHT22;5863;52.832;4.758;2022-12-16T16:04:53;3.00;99.90
11615;DHT22;5863;52.832;4.758;2022-12-16T16:07:39;2.90;99.90
11615;DHT22;5863;52.832;4.758;2022-12-16T16:10:24;2.80;99.90
11615;DHT22;5863;52.832;4.758;2022-12-16T16:13:09;2.70;99.90
11615;DHT22;5863;52.832;4.758;2022-12-16T16:15:53;2.50;99.90
11615;DHT22;5863;52.832;4.758;2022-12-16T16:18:39;2.50;99.90
11615;DHT22;5863;52.832;4.758;2022-12-16T16:21:23;2.50;99.90
11615;DHT22;5863;52.832;4.758;2022-12-16T16:24:09;2.40;99.90
11615;DHT22;5863;52.832;4.758;2022-12-16T16:26:53;2.40;99.90
11615;DHT22;5863;52.832;4.758;2022-12-16T16:29:38;2.30;99.90
11615;DHT22;5863;52.832;4.758;2022-12-16T16:32:22;2.30;99.90
11615;DHT22;5863;52.832;4.758;2022-12-16T16:35:18;2.20;99.90
11615;DHT22;5863;52.832;4.758;2022-12-16T16:38:02;2.10;99.90
11615;DHT22;5863;52.832;4.758;2022-12-16T16:40:48;2.10;99.90
11615;DHT22;5863;52.832;4.758;2022-12-16T16:43:33;2.00;99.90
11615;DHT22;5863;52.832;4.758;2022-12-16T16:46:29;1.90;99.90
11615;DHT22;5863;52.832;4.758;2022-12-16T16:49:20;1.90;99.90
11615;DHT22;5863;52.832;4.758;2022-12-16T16:52:11;1.90;99.90
11615;DHT22;5863;52.832;4.758;2022-12-16T16:54:57;2.00;99.90
11615;DHT22;5863;52.832;4.758;2022-12-16T16:57:43;2.00;99.90
11615;DHT22;5863;52.832;4.758;2022-12-16T17:00:35;2.00;99.90
11615;DHT22;5863;52.832;4.758;2022-12-16T17:03:26;2.00;99.90
11615;DHT22;5863;52.832;4.758;2022-12-16T17:06:10;1.90;99.90
11615;DHT22;5863;52.832;4.758;2022-12-16T17:08:55;1.90;99.90
11615;DHT22;5863;52.832;4.758;2022-12-16T17:11:39;1.90;99.90
11615;DHT22;5863;52.832;4.758;2022-12-16T17:14:25;1.80;99.90
11615;DHT22;5863;52.832;4.758;2022-12-16T17:17:09;1.70;99.90
11615;DHT22;5863;52.832;4.758;2022-12-16T17:19:54;1.70;99.90
11615;DHT22;5863;52.832;4.758;2022-12-16T17:22:40;1.70;99.90
11615;DHT22;5863;52.832;4.758;2022-12-16T17:25:24;1.70;99.90
11615;DHT22;5863;52.832;4.758;2022-12-16T17:28:09;1.60;99.90
11615;DHT22;5863;52.832;4.758;2022-12-16T17:30:55;1.50;99.90
11615;DHT22;5863;52.832;4.758;2022-12-16T17:33:40;1.60;99.90
11615;DHT22;5863;52.832;4.758;2022-12-16T17:36:24;1.60;99.90
11615;DHT22;5863;52.832;4.758;2022-12-16T17:39:08;1.60;99.90
11615;DHT22;5863;52.832;4.758;2022-12-16T17:41:54;1.50;99.90
11615;DHT22;5863;52.832;4.758;2022-12-16T17:44:38;1.50;99.90
11615;DHT22;5863;52.832;4.758;2022-12-16T17:47:24;1.40;99.90
11615;DHT22;5863;52.832;4.758;2022-12-16T17:50:09;1.40;99.90
11615;DHT22;5863;52.832;4.758;2022-12-16T17:53:05;1.30;99.90
11615;DHT22;5863;52.832;4.758;2022-12-16T17:55:49;1.30;99.90
11615;DHT22;5863;52.832;4.758;2022-12-16T17:58:35;1.30;99.90